Incheon International Airport
RKSI : now visible

Airfield :











YOU CAN JOIN US ON...

 
LOGIN :

Register | Disclaimer

   EN    FR    IT 

 









Legend :    VFR   Marginal VFR   IFR   Intensive IFR   Very Intensive IFR
Visi :
Ceiling :
>= 8 km
>= 3000ft
5 to 8 km
1000 to 3000 ft
1500m to 5 km
500 to 1000 ft
800 to 1500m
200 to 500 ft
< 800m
< 200 ft
Symbols :   Thunderstorms  Fog  Heavy snow  Heavy precipitations  Wind > 20 kt







- Airport Elevation : 23 ft
- IATA code : ICN


RKSI - Incheon International

CURRENT METAR :
  • 261530Z 31003KT 260V030 CAVOK 07/01 Q1020 NOSIG

EXPIRED METARs :
  • 261500Z 09004KT 050V160 CAVOK 07/01 Q1019 NOSIG
  • 261430Z 07005KT 040V100 CAVOK 08/01 Q1020 NOSIG
  • 261400Z 05004KT CAVOK 08/01 Q1019 NOSIG
  • 261330Z 03008KT CAVOK 08/01 Q1019 NOSIG
  • 261300Z 02010KT CAVOK 09/01 Q1019 NOSIG

TAF TAF RKSI
Valid from the 26 at 12:00 until the 27 at 18:00 UTC


261100Z 2612/2718 04007KT 7000 FEW030 SCT120 TN05/2621Z TX14/2706Z
BECMG 2702/2703 30010KT
BECMG 2715/2716 05007KT NSC
RKRR FIR / Asia



MET'MAP, your aeronautical weather chart ! - Copyright ORBIFLY December 2007 - Disclaimer

ORBIFLY MET'MAP TEAM :

Programming & Development : Alexandra Zaïnal
Concept & Development : Baudouin d'Aumeries
Co-Development & Prog : Marc-Olivier Méhu
Technical & hardware support : Manuel Goepfert

Contact : metmap@orbifly.com




SOURCES & CREDITS :

   NOAA       Earth
Advisory